sensor_id;sensor_type;location;lat;lon;timestamp;P1;durP1;ratioP1;P2;durP2;ratioP2
78453;SDS011;67750;55.832;49.124;2024-01-30T00:00:32;18.40;;;7.72;;
78453;SDS011;67750;55.832;49.124;2024-01-30T00:03:02;19.90;;;7.15;;
78453;SDS011;67750;55.832;49.124;2024-01-30T00:05:32;16.73;;;7.35;;
78453;SDS011;67750;55.832;49.124;2024-01-30T00:08:01;19.52;;;7.42;;
78453;SDS011;67750;55.832;49.124;2024-01-30T00:10:31;19.40;;;8.15;;
78453;SDS011;67750;55.832;49.124;2024-01-30T00:13:00;19.12;;;8.10;;
78453;SDS011;67750;55.832;49.124;2024-01-30T00:15:30;18.52;;;8.30;;
78453;SDS011;67750;55.832;49.124;2024-01-30T00:17:59;18.82;;;7.58;;
78453;SDS011;67750;55.832;49.124;2024-01-30T00:20:29;20.25;;;7.60;;
78453;SDS011;67750;55.832;49.124;2024-01-30T00:22:59;17.60;;;7.65;;
78453;SDS011;67750;55.832;49.124;2024-01-30T00:25:28;18.40;;;8.90;;
78453;SDS011;67750;55.832;49.124;2024-01-30T00:27:59;22.10;;;8.80;;
78453;SDS011;67750;55.832;49.124;2024-01-30T00:30:29;19.82;;;7.58;;
78453;SDS011;67750;55.832;49.124;2024-01-30T00:32:59;20.08;;;8.75;;
78453;SDS011;67750;55.832;49.124;2024-01-30T00:35:28;18.23;;;7.55;;
78453;SDS011;67750;55.832;49.124;2024-01-30T00:37:58;21.42;;;8.45;;
78453;SDS011;67750;55.832;49.124;2024-01-30T00:40:27;22.62;;;8.25;;
78453;SDS011;67750;55.832;49.124;2024-01-30T00:42:57;20.77;;;9.48;;
78453;SDS011;67750;55.832;49.124;2024-01-30T00:45:26;19.98;;;8.03;;
78453;SDS011;67750;55.832;49.124;2024-01-30T00:47:56;19.27;;;7.65;;
78453;SDS011;67750;55.832;49.124;2024-01-30T00:50:26;20.43;;;7.75;;
78453;SDS011;67750;55.832;49.124;2024-01-30T00:52:55;17.77;;;6.58;;
78453;SDS011;67750;55.832;49.124;2024-01-30T00:55:25;17.17;;;7.03;;
78453;SDS011;67750;55.832;49.124;2024-01-30T00:57:54;18.02;;;7.50;;
78453;SDS011;67750;55.832;49.124;2024-01-30T01:00:24;21.00;;;7.87;;
78453;SDS011;67750;55.832;49.124;2024-01-30T01:02:55;15.28;;;8.43;;
78453;SDS011;67750;55.832;49.124;2024-01-30T01:05:25;17.65;;;7.75;;
78453;SDS011;67750;55.832;49.124;2024-01-30T01:07:54;16.25;;;7.78;;
78453;SDS011;67750;55.832;49.124;2024-01-30T01:10:24;18.30;;;8.35;;
78453;SDS011;67750;55.832;49.124;2024-01-30T01:12:55;18.65;;;7.08;;
78453;SDS011;67750;55.832;49.124;2024-01-30T01:15:24;19.45;;;7.42;;
78453;SDS011;67750;55.832;49.124;2024-01-30T01:17:54;15.80;;;7.65;;
78453;SDS011;67750;55.832;49.124;2024-01-30T01:20:23;17.37;;;7.25;;
78453;SDS011;67750;55.832;49.124;2024-01-30T01:22:53;16.05;;;7.70;;
78453;SDS011;67750;55.832;49.124;2024-01-30T01:25:22;16.70;;;6.92;;
78453;SDS011;67750;55.832;49.124;2024-01-30T01:27:52;16.07;;;6.58;;
78453;SDS011;67750;55.832;49.124;2024-01-30T01:30:22;13.65;;;6.70;;
78453;SDS011;67750;55.832;49.124;2024-01-30T01:32:52;14.47;;;6.72;;
78453;SDS011;67750;55.832;49.124;2024-01-30T01:35:23;16.42;;;6.78;;
78453;SDS011;67750;55.832;49.124;2024-01-30T01:37:53;15.58;;;6.40;;
78453;SDS011;67750;55.832;49.124;2024-01-30T01:40:25;14.18;;;6.83;;
78453;SDS011;67750;55.832;49.124;2024-01-30T01:42:55;16.73;;;7.47;;
78453;SDS011;67750;55.832;49.124;2024-01-30T01:45:25;15.90;;;6.35;;
78453;SDS011;67750;55.832;49.124;2024-01-30T01:47:55;13.20;;;6.75;;
78453;SDS011;67750;55.832;49.124;2024-01-30T01:50:24;13.50;;;6.55;;
78453;SDS011;67750;55.832;49.124;2024-01-30T01:52:54;13.98;;;6.33;;
78453;SDS011;67750;55.832;49.124;2024-01-30T01:55:24;14.45;;;6.67;;
78453;SDS011;67750;55.832;49.124;2024-01-30T01:57:55;14.60;;;6.62;;
78453;SDS011;67750;55.832;49.124;2024-01-30T02:00:25;14.15;;;6.15;;
78453;SDS011;67750;55.832;49.124;2024-01-30T02:02:54;14.60;;;6.72;;
78453;SDS011;67750;55.832;49.124;2024-01-30T02:05:24;12.50;;;5.95;;
78453;SDS011;67750;55.832;49.124;2024-01-30T02:07:54;15.23;;;7.28;;
78453;SDS011;67750;55.832;49.124;2024-01-30T02:10:24;15.70;;;6.78;;
78453;SDS011;67750;55.832;49.124;2024-01-30T02:12:53;15.63;;;7.55;;
78453;SDS011;67750;55.832;49.124;2024-01-30T02:15:23;14.43;;;6.75;;
78453;SDS011;67750;55.832;49.124;2024-01-30T02:17:53;16.52;;;6.87;;
78453;SDS011;67750;55.832;49.124;2024-01-30T02:20:24;13.60;;;6.42;;
78453;SDS011;67750;55.832;49.124;2024-01-30T02:22:54;13.65;;;6.62;;
78453;SDS011;67750;55.832;49.124;2024-01-30T02:28:15;17.32;;;7.62;;
78453;SDS011;67750;55.832;49.124;2024-01-30T02:30:45;14.73;;;7.05;;
78453;SDS011;67750;55.832;49.124;2024-01-30T02:33:14;16.70;;;7.33;;
78453;SDS011;67750;55.832;49.124;2024-01-30T02:35:44;17.30;;;7.17;;
78453;SDS011;67750;55.832;49.124;2024-01-30T02:38:15;15.83;;;7.20;;
78453;SDS011;67750;55.832;49.124;2024-01-30T02:40:44;16.90;;;7.47;;
78453;SDS011;67750;55.832;49.124;2024-01-30T02:43:14;17.60;;;7.00;;
78453;SDS011;67750;55.832;49.124;2024-01-30T02:45:44;18.30;;;7.83;;
78453;SDS011;67750;55.832;49.124;2024-01-30T02:48:13;22.20;;;7.60;;
78453;SDS011;67750;55.832;49.124;2024-01-30T02:50:43;18.57;;;8.25;;
78453;SDS011;67750;55.832;49.124;2024-01-30T02:53:13;16.42;;;7.75;;
78453;SDS011;67750;55.832;49.124;2024-01-30T02:55:43;16.15;;;7.30;;
78453;SDS011;67750;55.832;49.124;2024-01-30T02:58:13;15.13;;;7.70;;
78453;SDS011;67750;55.832;49.124;2024-01-30T03:00:42;16.90;;;7.40;;
78453;SDS011;67750;55.832;49.124;2024-01-30T03:03:12;16.27;;;7.50;;
78453;SDS011;67750;55.832;49.124;2024-01-30T03:05:41;16.23;;;8.15;;
78453;SDS011;67750;55.832;49.124;2024-01-30T03:08:11;18.02;;;7.78;;
78453;SDS011;67750;55.832;49.124;2024-01-30T03:10:40;16.62;;;8.20;;
78453;SDS011;67750;55.832;49.124;2024-01-30T03:13:10;16.90;;;7.60;;
78453;SDS011;67750;55.832;49.124;2024-01-30T03:15:39;16.57;;;8.28;;
78453;SDS011;67750;55.832;49.124;2024-01-30T03:18:09;17.12;;;7.75;;
78453;SDS011;67750;55.832;49.124;2024-01-30T03:20:38;16.90;;;8.23;;
78453;SDS011;67750;55.832;49.124;2024-01-30T03:23:08;18.35;;;7.95;;
78453;SDS011;67750;55.832;49.124;2024-01-30T03:25:38;17.15;;;7.22;;
78453;SDS011;67750;55.832;49.124;2024-01-30T03:28:07;16.73;;;8.13;;
78453;SDS011;67750;55.832;49.124;2024-01-30T03:30:37;22.73;;;8.90;;
78453;SDS011;67750;55.832;49.124;2024-01-30T03:33:06;15.90;;;8.45;;
78453;SDS011;67750;55.832;49.124;2024-01-30T03:35:36;21.10;;;7.92;;
78453;SDS011;67750;55.832;49.124;2024-01-30T03:38:05;20.20;;;8.80;;
78453;SDS011;67750;55.832;49.124;2024-01-30T03:40:35;16.75;;;7.10;;
78453;SDS011;67750;55.832;49.124;2024-01-30T03:43:05;17.73;;;7.87;;
78453;SDS011;67750;55.832;49.124;2024-01-30T03:45:34;20.72;;;7.92;;
78453;SDS011;67750;55.832;49.124;2024-01-30T03:48:04;20.35;;;8.73;;
78453;SDS011;67750;55.832;49.124;2024-01-30T03:50:34;20.23;;;8.25;;
78453;SDS011;67750;55.832;49.124;2024-01-30T03:53:04;17.25;;;7.87;;
78453;SDS011;67750;55.832;49.124;2024-01-30T03:55:33;20.02;;;8.03;;
78453;SDS011;67750;55.832;49.124;2024-01-30T03:58:03;19.23;;;8.40;;
78453;SDS011;67750;55.832;49.124;2024-01-30T04:00:33;15.72;;;7.45;;
78453;SDS011;67750;55.832;49.124;2024-01-30T04:03:02;19.25;;;8.05;;
78453;SDS011;67750;55.832;49.124;2024-01-30T04:05:32;17.30;;;7.62;;
78453;SDS011;67750;55.832;49.124;2024-01-30T04:08:02;16.45;;;8.38;;
78453;SDS011;67750;55.832;49.124;2024-01-30T04:10:31;15.85;;;7.12;;
78453;SDS011;67750;55.832;49.124;2024-01-30T04:13:01;18.02;;;7.75;;
78453;SDS011;67750;55.832;49.124;2024-01-30T04:15:31;18.82;;;8.13;;
78453;SDS011;67750;55.832;49.124;2024-01-30T04:18:00;17.23;;;8.05;;
78453;SDS011;67750;55.832;49.124;2024-01-30T04:20:30;20.23;;;8.28;;
78453;SDS011;67750;55.832;49.124;2024-01-30T04:22:59;20.02;;;9.05;;
78453;SDS011;67750;55.832;49.124;2024-01-30T04:25:29;20.92;;;9.03;;
78453;SDS011;67750;55.832;49.124;2024-01-30T04:27:58;17.67;;;7.97;;
78453;SDS011;67750;55.832;49.124;2024-01-30T04:30:28;15.80;;;7.40;;
78453;SDS011;67750;55.832;49.124;2024-01-30T04:32:58;21.93;;;9.75;;
78453;SDS011;67750;55.832;49.124;2024-01-30T04:35:27;19.98;;;8.55;;
78453;SDS011;67750;55.832;49.124;2024-01-30T04:37:57;19.25;;;8.10;;
78453;SDS011;67750;55.832;49.124;2024-01-30T04:40:26;15.55;;;7.83;;
78453;SDS011;67750;55.832;49.124;2024-01-30T04:42:56;16.82;;;8.43;;
78453;SDS011;67750;55.832;49.124;2024-01-30T04:45:25;17.12;;;7.67;;
78453;SDS011;67750;55.832;49.124;2024-01-30T04:47:55;16.97;;;8.25;;
78453;SDS011;67750;55.832;49.124;2024-01-30T04:50:25;17.87;;;8.10;;
78453;SDS011;67750;55.832;49.124;2024-01-30T04:52:54;21.42;;;8.83;;
78453;SDS011;67750;55.832;49.124;2024-01-30T04:55:23;19.50;;;8.93;;
78453;SDS011;67750;55.832;49.124;2024-01-30T04:57:53;20.27;;;9.35;;
78453;SDS011;67750;55.832;49.124;2024-01-30T05:00:22;23.30;;;8.03;;
78453;SDS011;67750;55.832;49.124;2024-01-30T05:02:52;17.42;;;8.53;;
78453;SDS011;67750;55.832;49.124;2024-01-30T05:05:21;18.85;;;8.05;;
78453;SDS011;67750;55.832;49.124;2024-01-30T05:07:51;18.87;;;8.28;;
78453;SDS011;67750;55.832;49.124;2024-01-30T05:10:21;17.57;;;8.45;;
78453;SDS011;67750;55.832;49.124;2024-01-30T05:12:50;18.45;;;8.43;;
78453;SDS011;67750;55.832;49.124;2024-01-30T05:15:20;17.25;;;8.18;;
78453;SDS011;67750;55.832;49.124;2024-01-30T05:17:49;19.80;;;9.13;;
78453;SDS011;67750;55.832;49.124;2024-01-30T05:20:19;17.65;;;7.85;;
78453;SDS011;67750;55.832;49.124;2024-01-30T05:22:48;19.73;;;8.28;;
78453;SDS011;67750;55.832;49.124;2024-01-30T05:25:19;17.60;;;7.47;;
78453;SDS011;67750;55.832;49.124;2024-01-30T05:27:48;16.70;;;7.70;;
78453;SDS011;67750;55.832;49.124;2024-01-30T05:30:18;18.62;;;8.30;;
78453;SDS011;67750;55.832;49.124;2024-01-30T05:32:47;17.35;;;7.40;;
78453;SDS011;67750;55.832;49.124;2024-01-30T05:35:17;17.85;;;7.60;;
78453;SDS011;67750;55.832;49.124;2024-01-30T05:37:48;21.75;;;8.15;;
78453;SDS011;67750;55.832;49.124;2024-01-30T05:40:18;16.75;;;8.10;;
78453;SDS011;67750;55.832;49.124;2024-01-30T05:42:47;16.75;;;7.72;;
78453;SDS011;67750;55.832;49.124;2024-01-30T05:45:17;20.02;;;8.30;;
78453;SDS011;67750;55.832;49.124;2024-01-30T05:47:47;16.48;;;7.72;;
78453;SDS011;67750;55.832;49.124;2024-01-30T05:50:16;18.73;;;8.40;;
78453;SDS011;67750;55.832;49.124;2024-01-30T05:52:46;17.77;;;7.25;;
78453;SDS011;67750;55.832;49.124;2024-01-30T05:55:16;18.42;;;8.80;;
78453;SDS011;67750;55.832;49.124;2024-01-30T05:57:47;21.93;;;8.05;;
78453;SDS011;67750;55.832;49.124;2024-01-30T06:00:18;19.90;;;8.98;;
78453;SDS011;67750;55.832;49.124;2024-01-30T06:02:47;20.05;;;7.60;;
78453;SDS011;67750;55.832;49.124;2024-01-30T06:05:17;19.70;;;8.55;;
78453;SDS011;67750;55.832;49.124;2024-01-30T06:07:46;24.00;;;9.68;;
78453;SDS011;67750;55.832;49.124;2024-01-30T06:10:16;17.67;;;8.70;;
78453;SDS011;67750;55.832;49.124;2024-01-30T06:12:47;19.95;;;8.98;;
78453;SDS011;67750;55.832;49.124;2024-01-30T06:15:17;22.13;;;9.25;;
78453;SDS011;67750;55.832;49.124;2024-01-30T06:17:46;23.20;;;9.10;;
78453;SDS011;67750;55.832;49.124;2024-01-30T06:20:16;20.35;;;8.13;;
78453;SDS011;67750;55.832;49.124;2024-01-30T06:22:45;19.25;;;8.93;;
78453;SDS011;67750;55.832;49.124;2024-01-30T06:25:15;19.48;;;8.75;;
78453;SDS011;67750;55.832;49.124;2024-01-30T06:27:44;21.73;;;8.83;;
78453;SDS011;67750;55.832;49.124;2024-01-30T06:30:14;20.12;;;9.60;;
78453;SDS011;67750;55.832;49.124;2024-01-30T06:32:44;22.85;;;9.28;;
78453;SDS011;67750;55.832;49.124;2024-01-30T06:35:13;20.12;;;9.25;;
78453;SDS011;67750;55.832;49.124;2024-01-30T06:37:44;18.75;;;8.45;;
78453;SDS011;67750;55.832;49.124;2024-01-30T06:40:14;21.42;;;8.55;;
78453;SDS011;67750;55.832;49.124;2024-01-30T06:42:43;22.58;;;9.88;;
78453;SDS011;67750;55.832;49.124;2024-01-30T06:45:13;25.95;;;10.18;;
78453;SDS011;67750;55.832;49.124;2024-01-30T06:47:43;23.32;;;9.65;;
78453;SDS011;67750;55.832;49.124;2024-01-30T06:50:12;20.70;;;9.53;;
78453;SDS011;67750;55.832;49.124;2024-01-30T06:52:42;22.10;;;9.18;;
78453;SDS011;67750;55.832;49.124;2024-01-30T06:55:12;25.37;;;9.40;;
78453;SDS011;67750;55.832;49.124;2024-01-30T06:57:41;23.55;;;9.28;;
78453;SDS011;67750;55.832;49.124;2024-01-30T07:00:11;19.95;;;8.73;;
78453;SDS011;67750;55.832;49.124;2024-01-30T07:02:41;21.95;;;8.38;;
78453;SDS011;67750;55.832;49.124;2024-01-30T07:05:11;22.77;;;8.78;;
78453;SDS011;67750;55.832;49.124;2024-01-30T07:07:41;19.07;;;9.48;;
78453;SDS011;67750;55.832;49.124;2024-01-30T07:10:11;19.23;;;9.00;;
78453;SDS011;67750;55.832;49.124;2024-01-30T07:12:40;22.67;;;9.48;;
78453;SDS011;67750;55.832;49.124;2024-01-30T07:15:10;21.30;;;9.30;;
78453;SDS011;67750;55.832;49.124;2024-01-30T07:17:41;20.37;;;8.85;;
78453;SDS011;67750;55.832;49.124;2024-01-30T07:20:30;18.20;;;9.00;;
78453;SDS011;67750;55.832;49.124;2024-01-30T07:23:00;23.92;;;9.85;;
78453;SDS011;67750;55.832;49.124;2024-01-30T07:25:30;21.93;;;9.40;;
78453;SDS011;67750;55.832;49.124;2024-01-30T07:28:01;19.42;;;8.65;;
78453;SDS011;67750;55.832;49.124;2024-01-30T07:30:30;19.70;;;8.63;;
78453;SDS011;67750;55.832;49.124;2024-01-30T07:33:00;19.52;;;8.68;;
78453;SDS011;67750;55.832;49.124;2024-01-30T07:35:29;22.70;;;9.00;;
78453;SDS011;67750;55.832;49.124;2024-01-30T07:37:59;20.92;;;9.45;;
78453;SDS011;67750;55.832;49.124;2024-01-30T07:40:29;21.10;;;8.60;;
78453;SDS011;67750;55.832;49.124;2024-01-30T07:43:00;25.05;;;10.10;;
78453;SDS011;67750;55.832;49.124;2024-01-30T07:45:30;21.40;;;9.85;;
78453;SDS011;67750;55.832;49.124;2024-01-30T07:48:00;21.37;;;9.38;;
78453;SDS011;67750;55.832;49.124;2024-01-30T07:50:29;22.00;;;9.43;;
78453;SDS011;67750;55.832;49.124;2024-01-30T07:53:00;22.25;;;10.03;;
78453;SDS011;67750;55.832;49.124;2024-01-30T07:58:42;21.77;;;8.75;;
78453;SDS011;67750;55.832;49.124;2024-01-30T08:01:11;17.82;;;8.45;;
78453;SDS011;67750;55.832;49.124;2024-01-30T08:03:41;18.07;;;7.53;;
78453;SDS011;67750;55.832;49.124;2024-01-30T08:06:10;19.70;;;9.25;;
78453;SDS011;67750;55.832;49.124;2024-01-30T08:08:41;17.27;;;8.90;;
78453;SDS011;67750;55.832;49.124;2024-01-30T08:11:10;21.80;;;8.50;;
78453;SDS011;67750;55.832;49.124;2024-01-30T08:13:40;18.73;;;8.80;;
78453;SDS011;67750;55.832;49.124;2024-01-30T08:16:09;17.10;;;8.53;;
78453;SDS011;67750;55.832;49.124;2024-01-30T08:18:39;15.43;;;7.55;;
78453;SDS011;67750;55.832;49.124;2024-01-30T08:21:08;19.00;;;8.80;;
78453;SDS011;67750;55.832;49.124;2024-01-30T08:23:38;16.12;;;8.10;;
78453;SDS011;67750;55.832;49.124;2024-01-30T08:26:08;21.45;;;9.05;;
78453;SDS011;67750;55.832;49.124;2024-01-30T08:28:38;18.95;;;8.63;;
78453;SDS011;67750;55.832;49.124;2024-01-30T08:31:09;19.73;;;8.50;;
78453;SDS011;67750;55.832;49.124;2024-01-30T08:33:58;15.35;;;7.35;;
78453;SDS011;67750;55.832;49.124;2024-01-30T08:36:28;21.62;;;9.03;;
78453;SDS011;67750;55.832;49.124;2024-01-30T08:38:57;20.48;;;8.38;;
78453;SDS011;67750;55.832;49.124;2024-01-30T08:41:27;21.48;;;8.98;;
78453;SDS011;67750;55.832;49.124;2024-01-30T08:43:56;19.90;;;9.20;;
78453;SDS011;67750;55.832;49.124;2024-01-30T08:46:26;18.32;;;8.00;;
78453;SDS011;67750;55.832;49.124;2024-01-30T08:48:56;18.07;;;8.08;;
78453;SDS011;67750;55.832;49.124;2024-01-30T08:51:25;17.70;;;7.92;;
78453;SDS011;67750;55.832;49.124;2024-01-30T08:53:55;17.05;;;8.00;;
78453;SDS011;67750;55.832;49.124;2024-01-30T08:56:24;18.65;;;7.87;;
78453;SDS011;67750;55.832;49.124;2024-01-30T08:58:54;17.45;;;8.05;;
78453;SDS011;67750;55.832;49.124;2024-01-30T09:01:24;17.62;;;7.83;;
78453;SDS011;67750;55.832;49.124;2024-01-30T09:03:54;19.17;;;7.97;;
78453;SDS011;67750;55.832;49.124;2024-01-30T09:06:24;23.22;;;8.48;;
78453;SDS011;67750;55.832;49.124;2024-01-30T09:08:55;16.10;;;7.85;;
78453;SDS011;67750;55.832;49.124;2024-01-30T09:11:25;21.62;;;10.32;;
78453;SDS011;67750;55.832;49.124;2024-01-30T09:13:54;19.75;;;8.78;;
78453;SDS011;67750;55.832;49.124;2024-01-30T09:16:24;19.35;;;8.95;;
78453;SDS011;67750;55.832;49.124;2024-01-30T09:18:54;20.15;;;9.65;;
78453;SDS011;67750;55.832;49.124;2024-01-30T09:21:23;27.27;;;10.23;;
78453;SDS011;67750;55.832;49.124;2024-01-30T09:24:23;16.45;;;8.00;;
78453;SDS011;67750;55.832;49.124;2024-01-30T09:26:24;19.62;;;8.78;;
78453;SDS011;67750;55.832;49.124;2024-01-30T09:28:54;18.80;;;8.00;;
78453;SDS011;67750;55.832;49.124;2024-01-30T09:31:23;18.00;;;9.35;;
78453;SDS011;67750;55.832;49.124;2024-01-30T09:33:53;20.80;;;8.78;;
78453;SDS011;67750;55.832;49.124;2024-01-30T09:36:23;25.85;;;9.65;;
78453;SDS011;67750;55.832;49.124;2024-01-30T09:38:52;19.37;;;9.20;;
78453;SDS011;67750;55.832;49.124;2024-01-30T09:41:23;19.65;;;9.28;;
78453;SDS011;67750;55.832;49.124;2024-01-30T09:43:53;18.15;;;7.90;;
78453;SDS011;67750;55.832;49.124;2024-01-30T09:46:24;16.02;;;8.23;;
78453;SDS011;67750;55.832;49.124;2024-01-30T09:48:55;16.35;;;8.35;;
78453;SDS011;67750;55.832;49.124;2024-01-30T09:51:24;18.35;;;7.87;;
78453;SDS011;67750;55.832;49.124;2024-01-30T09:53:55;21.10;;;8.70;;
78453;SDS011;67750;55.832;49.124;2024-01-30T09:56:25;20.55;;;9.55;;
78453;SDS011;67750;55.832;49.124;2024-01-30T09:58:55;22.22;;;9.15;;
78453;SDS011;67750;55.832;49.124;2024-01-30T10:01:24;17.20;;;7.75;;
78453;SDS011;67750;55.832;49.124;2024-01-30T10:03:55;17.35;;;8.08;;
78453;SDS011;67750;55.832;49.124;2024-01-30T10:06:24;14.60;;;7.62;;
78453;SDS011;67750;55.832;49.124;2024-01-30T10:08:54;20.08;;;9.15;;
78453;SDS011;67750;55.832;49.124;2024-01-30T10:11:24;17.60;;;8.05;;
78453;SDS011;67750;55.832;49.124;2024-01-30T10:13:54;23.32;;;9.93;;
78453;SDS011;67750;55.832;49.124;2024-01-30T10:16:23;16.00;;;7.58;;
78453;SDS011;67750;55.832;49.124;2024-01-30T10:18:53;16.27;;;7.55;;
78453;SDS011;67750;55.832;49.124;2024-01-30T10:21:22;19.25;;;8.10;;
78453;SDS011;67750;55.832;49.124;2024-01-30T10:23:52;17.95;;;8.18;;
78453;SDS011;67750;55.832;49.124;2024-01-30T10:26:22;19.32;;;7.72;;
78453;SDS011;67750;55.832;49.124;2024-01-30T10:28:51;18.92;;;8.55;;
78453;SDS011;67750;55.832;49.124;2024-01-30T10:31:21;21.02;;;8.75;;
78453;SDS011;67750;55.832;49.124;2024-01-30T10:33:51;18.48;;;8.25;;
78453;SDS011;67750;55.832;49.124;2024-01-30T10:36:21;19.05;;;8.68;;
78453;SDS011;67750;55.832;49.124;2024-01-30T10:39:11;19.15;;;8.23;;
78453;SDS011;67750;55.832;49.124;2024-01-30T10:42:04;16.73;;;8.35;;
78453;SDS011;67750;55.832;49.124;2024-01-30T10:44:36;17.57;;;8.70;;
78453;SDS011;67750;55.832;49.124;2024-01-30T10:47:06;16.02;;;7.70;;
78453;SDS011;67750;55.832;49.124;2024-01-30T10:49:36;15.90;;;7.72;;
78453;SDS011;67750;55.832;49.124;2024-01-30T10:52:06;19.25;;;9.20;;
78453;SDS011;67750;55.832;49.124;2024-01-30T10:54:37;23.07;;;8.48;;
78453;SDS011;67750;55.832;49.124;2024-01-30T10:57:07;17.80;;;8.53;;
78453;SDS011;67750;55.832;49.124;2024-01-30T10:59:37;16.37;;;7.50;;
78453;SDS011;67750;55.832;49.124;2024-01-30T11:02:06;21.30;;;8.28;;
78453;SDS011;67750;55.832;49.124;2024-01-30T11:04:37;19.27;;;9.08;;
78453;SDS011;67750;55.832;49.124;2024-01-30T11:12:47;23.10;;;9.15;;
78453;SDS011;67750;55.832;49.124;2024-01-30T11:15:18;19.27;;;7.55;;
78453;SDS011;67750;55.832;49.124;2024-01-30T11:20:20;15.15;;;7.55;;
78453;SDS011;67750;55.832;49.124;2024-01-30T11:22:51;16.02;;;6.95;;
78453;SDS011;67750;55.832;49.124;2024-01-30T11:25:21;15.85;;;7.17;;
78453;SDS011;67750;55.832;49.124;2024-01-30T11:30:41;15.93;;;7.60;;
78453;SDS011;67750;55.832;49.124;2024-01-30T11:33:11;16.65;;;7.50;;
78453;SDS011;67750;55.832;49.124;2024-01-30T11:35:42;13.15;;;6.58;;
78453;SDS011;67750;55.832;49.124;2024-01-30T11:38:13;15.72;;;6.97;;
78453;SDS011;67750;55.832;49.124;2024-01-30T11:40:43;14.83;;;6.67;;
78453;SDS011;67750;55.832;49.124;2024-01-30T11:43:13;16.20;;;7.30;;
78453;SDS011;67750;55.832;49.124;2024-01-30T11:45:42;16.90;;;7.37;;
78453;SDS011;67750;55.832;49.124;2024-01-30T11:48:12;14.60;;;6.65;;
78453;SDS011;67750;55.832;49.124;2024-01-30T11:50:42;17.77;;;7.33;;
78453;SDS011;67750;55.832;49.124;2024-01-30T11:53:12;14.70;;;6.80;;
78453;SDS011;67750;55.832;49.124;2024-01-30T11:56:01;15.03;;;6.75;;
78453;SDS011;67750;55.832;49.124;2024-01-30T11:58:31;13.78;;;6.72;;
78453;SDS011;67750;55.832;49.124;2024-01-30T12:01:01;14.45;;;6.72;;
78453;SDS011;67750;55.832;49.124;2024-01-30T12:03:30;13.75;;;6.85;;
78453;SDS011;67750;55.832;49.124;2024-01-30T12:06:00;14.78;;;6.70;;
78453;SDS011;67750;55.832;49.124;2024-01-30T12:08:31;12.85;;;6.40;;
78453;SDS011;67750;55.832;49.124;2024-01-30T12:11:00;13.13;;;5.87;;
78453;SDS011;67750;55.832;49.124;2024-01-30T12:13:31;15.20;;;6.72;;
78453;SDS011;67750;55.832;49.124;2024-01-30T12:16:01;14.40;;;6.72;;
78453;SDS011;67750;55.832;49.124;2024-01-30T12:18:31;17.02;;;7.40;;
78453;SDS011;67750;55.832;49.124;2024-01-30T12:21:01;13.28;;;6.15;;
78453;SDS011;67750;55.832;49.124;2024-01-30T12:23:31;14.00;;;7.40;;
78453;SDS011;67750;55.832;49.124;2024-01-30T12:26:01;18.23;;;6.97;;
78453;SDS011;67750;55.832;49.124;2024-01-30T12:28:33;19.23;;;6.58;;
78453;SDS011;67750;55.832;49.124;2024-01-30T12:31:03;13.72;;;6.65;;
78453;SDS011;67750;55.832;49.124;2024-01-30T12:33:32;12.30;;;5.78;;
78453;SDS011;67750;55.832;49.124;2024-01-30T12:36:02;12.33;;;5.40;;
78453;SDS011;67750;55.832;49.124;2024-01-30T12:38:33;13.25;;;6.40;;
78453;SDS011;67750;55.832;49.124;2024-01-30T12:41:03;14.78;;;7.17;;
78453;SDS011;67750;55.832;49.124;2024-01-30T12:43:33;11.85;;;6.47;;
78453;SDS011;67750;55.832;49.124;2024-01-30T12:46:03;14.07;;;6.67;;
78453;SDS011;67750;55.832;49.124;2024-01-30T12:48:32;14.33;;;6.30;;
78453;SDS011;67750;55.832;49.124;2024-01-30T12:51:02;13.88;;;7.42;;
78453;SDS011;67750;55.832;49.124;2024-01-30T12:53:32;16.77;;;7.08;;
78453;SDS011;67750;55.832;49.124;2024-01-30T12:56:01;15.20;;;7.17;;
78453;SDS011;67750;55.832;49.124;2024-01-30T12:58:31;12.25;;;5.95;;
78453;SDS011;67750;55.832;49.124;2024-01-30T13:01:01;13.93;;;6.40;;
78453;SDS011;67750;55.832;49.124;2024-01-30T13:03:30;13.03;;;6.37;;
78453;SDS011;67750;55.832;49.124;2024-01-30T13:06:00;14.40;;;6.75;;
78453;SDS011;67750;55.832;49.124;2024-01-30T13:08:29;13.20;;;6.97;;
78453;SDS011;67750;55.832;49.124;2024-01-30T13:10:59;12.80;;;6.40;;
78453;SDS011;67750;55.832;49.124;2024-01-30T13:13:28;14.28;;;6.20;;
78453;SDS011;67750;55.832;49.124;2024-01-30T13:15:58;14.03;;;6.87;;
78453;SDS011;67750;55.832;49.124;2024-01-30T13:18:28;13.62;;;6.12;;
78453;SDS011;67750;55.832;49.124;2024-01-30T13:20:57;11.65;;;5.58;;
78453;SDS011;67750;55.832;49.124;2024-01-30T13:23:27;12.95;;;6.03;;
78453;SDS011;67750;55.832;49.124;2024-01-30T13:25:56;11.18;;;6.30;;
78453;SDS011;67750;55.832;49.124;2024-01-30T13:28:26;10.72;;;5.95;;
78453;SDS011;67750;55.832;49.124;2024-01-30T13:30:55;11.80;;;5.37;;
78453;SDS011;67750;55.832;49.124;2024-01-30T13:33:26;10.32;;;5.78;;
78453;SDS011;67750;55.832;49.124;2024-01-30T13:35:55;13.30;;;6.33;;
78453;SDS011;67750;55.832;49.124;2024-01-30T13:38:25;12.10;;;5.53;;
78453;SDS011;67750;55.832;49.124;2024-01-30T13:40:55;8.90;;;5.30;;
78453;SDS011;67750;55.832;49.124;2024-01-30T13:43:26;13.70;;;5.45;;
78453;SDS011;67750;55.832;49.124;2024-01-30T13:45:56;9.88;;;4.75;;
78453;SDS011;67750;55.832;49.124;2024-01-30T13:48:25;7.87;;;4.75;;
78453;SDS011;67750;55.832;49.124;2024-01-30T13:50:55;9.95;;;5.30;;
78453;SDS011;67750;55.832;49.124;2024-01-30T13:53:24;11.05;;;4.72;;
78453;SDS011;67750;55.832;49.124;2024-01-30T13:55:54;9.15;;;4.35;;
78453;SDS011;67750;55.832;49.124;2024-01-30T13:58:23;10.68;;;4.47;;
78453;SDS011;67750;55.832;49.124;2024-01-30T14:00:54;8.28;;;4.47;;
78453;SDS011;67750;55.832;49.124;2024-01-30T14:03:23;11.25;;;4.20;;
78453;SDS011;67750;55.832;49.124;2024-01-30T14:05:53;9.48;;;5.03;;
78453;SDS011;67750;55.832;49.124;2024-01-30T14:08:23;9.38;;;4.25;;
78453;SDS011;67750;55.832;49.124;2024-01-30T14:10:54;9.88;;;4.55;;
78453;SDS011;67750;55.832;49.124;2024-01-30T14:13:24;9.75;;;4.25;;
78453;SDS011;67750;55.832;49.124;2024-01-30T14:15:53;8.30;;;4.53;;
78453;SDS011;67750;55.832;49.124;2024-01-30T14:18:23;9.68;;;4.15;;
78453;SDS011;67750;55.832;49.124;2024-01-30T14:20:53;9.55;;;4.65;;
78453;SDS011;67750;55.832;49.124;2024-01-30T14:23:22;9.88;;;4.33;;
78453;SDS011;67750;55.832;49.124;2024-01-30T14:25:52;8.33;;;4.00;;
78453;SDS011;67750;55.832;49.124;2024-01-30T14:28:21;6.28;;;3.40;;
78453;SDS011;67750;55.832;49.124;2024-01-30T14:30:51;9.05;;;3.85;;
78453;SDS011;67750;55.832;49.124;2024-01-30T14:33:21;6.90;;;3.33;;
78453;SDS011;67750;55.832;49.124;2024-01-30T14:35:50;7.33;;;3.22;;
78453;SDS011;67750;55.832;49.124;2024-01-30T14:38:20;7.03;;;3.30;;
78453;SDS011;67750;55.832;49.124;2024-01-30T14:40:49;6.28;;;3.65;;
78453;SDS011;67750;55.832;49.124;2024-01-30T14:43:19;6.67;;;3.92;;
78453;SDS011;67750;55.832;49.124;2024-01-30T14:45:49;9.13;;;3.83;;
78453;SDS011;67750;55.832;49.124;2024-01-30T14:48:19;10.65;;;4.00;;
78453;SDS011;67750;55.832;49.124;2024-01-30T14:50:48;8.48;;;3.52;;
78453;SDS011;67750;55.832;49.124;2024-01-30T14:53:18;6.80;;;3.83;;
78453;SDS011;67750;55.832;49.124;2024-01-30T14:55:48;5.90;;;2.90;;